sensor_id;sensor_type;location;lat;lon;timestamp;P1;durP1;ratioP1;P2;durP2;ratioP2
16878;SDS011;8556;52.218;9.884;2024-01-06T00:00:53;4.13;;;1.63;;
16878;SDS011;8556;52.218;9.884;2024-01-06T00:03:20;2.00;;;1.33;;
16878;SDS011;8556;52.218;9.884;2024-01-06T00:05:47;2.57;;;1.53;;
16878;SDS011;8556;52.218;9.884;2024-01-06T00:08:14;2.87;;;1.30;;
16878;SDS011;8556;52.218;9.884;2024-01-06T00:10:40;4.13;;;1.20;;
16878;SDS011;8556;52.218;9.884;2024-01-06T00:13:07;3.50;;;1.53;;
16878;SDS011;8556;52.218;9.884;2024-01-06T00:15:35;3.43;;;1.10;;
16878;SDS011;8556;52.218;9.884;2024-01-06T00:18:02;3.90;;;1.30;;
16878;SDS011;8556;52.218;9.884;2024-01-06T00:20:29;2.83;;;1.30;;
16878;SDS011;8556;52.218;9.884;2024-01-06T00:22:56;3.40;;;1.50;;
16878;SDS011;8556;52.218;9.884;2024-01-06T00:25:24;4.70;;;1.47;;
16878;SDS011;8556;52.218;9.884;2024-01-06T00:27:50;3.33;;;1.70;;
16878;SDS011;8556;52.218;9.884;2024-01-06T00:30:17;3.07;;;1.50;;
16878;SDS011;8556;52.218;9.884;2024-01-06T00:32:45;2.60;;;1.70;;
16878;SDS011;8556;52.218;9.884;2024-01-06T00:35:12;4.17;;;1.70;;
16878;SDS011;8556;52.218;9.884;2024-01-06T00:37:39;4.60;;;1.40;;
16878;SDS011;8556;52.218;9.884;2024-01-06T00:40:06;2.87;;;1.50;;
16878;SDS011;8556;52.218;9.884;2024-01-06T00:42:33;2.70;;;1.53;;
16878;SDS011;8556;52.218;9.884;2024-01-06T00:45:00;5.00;;;1.60;;
16878;SDS011;8556;52.218;9.884;2024-01-06T00:47:27;4.67;;;1.63;;
16878;SDS011;8556;52.218;9.884;2024-01-06T00:49:55;4.47;;;1.80;;
16878;SDS011;8556;52.218;9.884;2024-01-06T00:52:22;2.83;;;1.60;;
16878;SDS011;8556;52.218;9.884;2024-01-06T00:54:49;3.80;;;1.47;;
16878;SDS011;8556;52.218;9.884;2024-01-06T00:57:15;4.03;;;1.70;;
16878;SDS011;8556;52.218;9.884;2024-01-06T00:59:42;1.73;;;1.53;;
16878;SDS011;8556;52.218;9.884;2024-01-06T01:02:09;3.93;;;2.30;;
16878;SDS011;8556;52.218;9.884;2024-01-06T01:04:36;5.07;;;1.87;;
16878;SDS011;8556;52.218;9.884;2024-01-06T01:07:04;3.03;;;1.67;;
16878;SDS011;8556;52.218;9.884;2024-01-06T01:09:31;4.70;;;2.00;;
16878;SDS011;8556;52.218;9.884;2024-01-06T01:11:57;2.40;;;1.60;;
16878;SDS011;8556;52.218;9.884;2024-01-06T01:14:24;7.77;;;1.90;;
16878;SDS011;8556;52.218;9.884;2024-01-06T01:16:51;5.50;;;1.90;;
16878;SDS011;8556;52.218;9.884;2024-01-06T01:19:18;3.37;;;1.80;;
16878;SDS011;8556;52.218;9.884;2024-01-06T01:21:44;4.97;;;1.67;;
16878;SDS011;8556;52.218;9.884;2024-01-06T01:24:13;2.63;;;1.70;;
16878;SDS011;8556;52.218;9.884;2024-01-06T01:26:39;3.47;;;1.67;;
16878;SDS011;8556;52.218;9.884;2024-01-06T01:29:06;3.80;;;1.90;;
16878;SDS011;8556;52.218;9.884;2024-01-06T01:31:33;3.93;;;1.70;;
16878;SDS011;8556;52.218;9.884;2024-01-06T01:34:00;2.87;;;1.80;;
16878;SDS011;8556;52.218;9.884;2024-01-06T01:36:27;4.17;;;1.90;;
16878;SDS011;8556;52.218;9.884;2024-01-06T01:38:54;4.53;;;1.90;;
16878;SDS011;8556;52.218;9.884;2024-01-06T01:41:22;5.37;;;2.03;;
16878;SDS011;8556;52.218;9.884;2024-01-06T01:43:48;4.20;;;2.03;;
16878;SDS011;8556;52.218;9.884;2024-01-06T01:46:23;3.80;;;1.77;;
16878;SDS011;8556;52.218;9.884;2024-01-06T01:48:51;7.30;;;2.27;;
16878;SDS011;8556;52.218;9.884;2024-01-06T01:51:18;2.10;;;1.70;;
16878;SDS011;8556;52.218;9.884;2024-01-06T01:53:46;4.50;;;2.00;;
16878;SDS011;8556;52.218;9.884;2024-01-06T01:56:13;2.90;;;1.70;;
16878;SDS011;8556;52.218;9.884;2024-01-06T01:58:41;1.67;;;1.57;;
16878;SDS011;8556;52.218;9.884;2024-01-06T02:01:08;5.87;;;1.97;;
16878;SDS011;8556;52.218;9.884;2024-01-06T02:03:35;3.63;;;1.80;;
16878;SDS011;8556;52.218;9.884;2024-01-06T02:06:02;4.57;;;2.10;;
16878;SDS011;8556;52.218;9.884;2024-01-06T02:08:29;4.57;;;2.00;;
16878;SDS011;8556;52.218;9.884;2024-01-06T02:10:56;3.07;;;1.70;;
16878;SDS011;8556;52.218;9.884;2024-01-06T02:13:23;4.77;;;2.13;;
16878;SDS011;8556;52.218;9.884;2024-01-06T02:15:51;3.10;;;1.50;;
16878;SDS011;8556;52.218;9.884;2024-01-06T02:18:20;2.13;;;1.80;;
16878;SDS011;8556;52.218;9.884;2024-01-06T02:20:46;2.33;;;2.10;;
16878;SDS011;8556;52.218;9.884;2024-01-06T02:23:16;5.77;;;1.50;;
16878;SDS011;8556;52.218;9.884;2024-01-06T02:25:43;3.23;;;1.80;;
16878;SDS011;8556;52.218;9.884;2024-01-06T02:28:10;4.37;;;2.17;;
16878;SDS011;8556;52.218;9.884;2024-01-06T02:30:37;4.47;;;2.20;;
16878;SDS011;8556;52.218;9.884;2024-01-06T02:33:04;5.07;;;2.27;;
16878;SDS011;8556;52.218;9.884;2024-01-06T02:35:30;2.93;;;1.73;;
16878;SDS011;8556;52.218;9.884;2024-01-06T02:37:57;3.13;;;2.00;;
16878;SDS011;8556;52.218;9.884;2024-01-06T02:40:25;3.97;;;1.97;;
16878;SDS011;8556;52.218;9.884;2024-01-06T02:42:52;3.40;;;1.73;;
16878;SDS011;8556;52.218;9.884;2024-01-06T02:45:19;3.10;;;1.73;;
16878;SDS011;8556;52.218;9.884;2024-01-06T02:47:46;3.47;;;2.17;;
16878;SDS011;8556;52.218;9.884;2024-01-06T02:50:12;4.27;;;1.83;;
16878;SDS011;8556;52.218;9.884;2024-01-06T02:52:39;4.53;;;1.90;;
16878;SDS011;8556;52.218;9.884;2024-01-06T02:55:06;5.43;;;1.90;;
16878;SDS011;8556;52.218;9.884;2024-01-06T02:57:35;2.93;;;2.27;;
16878;SDS011;8556;52.218;9.884;2024-01-06T03:00:03;7.17;;;2.03;;
16878;SDS011;8556;52.218;9.884;2024-01-06T03:02:31;6.40;;;2.13;;
16878;SDS011;8556;52.218;9.884;2024-01-06T03:04:58;3.47;;;2.10;;
16878;SDS011;8556;52.218;9.884;2024-01-06T03:07:25;3.63;;;2.27;;
16878;SDS011;8556;52.218;9.884;2024-01-06T03:09:51;5.47;;;2.20;;
16878;SDS011;8556;52.218;9.884;2024-01-06T03:12:18;3.97;;;2.20;;
16878;SDS011;8556;52.218;9.884;2024-01-06T03:14:47;2.80;;;2.17;;
16878;SDS011;8556;52.218;9.884;2024-01-06T03:17:14;3.40;;;2.13;;
16878;SDS011;8556;52.218;9.884;2024-01-06T03:19:41;5.33;;;2.43;;
16878;SDS011;8556;52.218;9.884;2024-01-06T03:22:07;7.97;;;3.83;;
16878;SDS011;8556;52.218;9.884;2024-01-06T03:24:34;13.57;;;6.30;;
16878;SDS011;8556;52.218;9.884;2024-01-06T03:27:01;12.67;;;6.67;;
16878;SDS011;8556;52.218;9.884;2024-01-06T03:29:28;13.67;;;7.70;;
16878;SDS011;8556;52.218;9.884;2024-01-06T03:31:56;12.13;;;6.73;;
16878;SDS011;8556;52.218;9.884;2024-01-06T03:34:23;15.43;;;8.07;;
16878;SDS011;8556;52.218;9.884;2024-01-06T03:36:50;17.17;;;9.50;;
16878;SDS011;8556;52.218;9.884;2024-01-06T03:39:16;18.30;;;9.93;;
16878;SDS011;8556;52.218;9.884;2024-01-06T03:41:43;19.97;;;10.73;;
16878;SDS011;8556;52.218;9.884;2024-01-06T03:44:10;21.40;;;10.80;;
16878;SDS011;8556;52.218;9.884;2024-01-06T03:46:37;21.50;;;10.43;;
16878;SDS011;8556;52.218;9.884;2024-01-06T03:49:05;22.20;;;11.77;;
16878;SDS011;8556;52.218;9.884;2024-01-06T03:51:32;20.77;;;11.23;;
16878;SDS011;8556;52.218;9.884;2024-01-06T03:53:58;24.27;;;12.07;;
16878;SDS011;8556;52.218;9.884;2024-01-06T03:56:25;24.13;;;11.40;;
16878;SDS011;8556;52.218;9.884;2024-01-06T03:58:52;21.80;;;10.57;;
16878;SDS011;8556;52.218;9.884;2024-01-06T04:01:19;22.00;;;10.70;;
16878;SDS011;8556;52.218;9.884;2024-01-06T04:03:46;22.07;;;11.23;;
16878;SDS011;8556;52.218;9.884;2024-01-06T04:06:14;23.87;;;11.17;;
16878;SDS011;8556;52.218;9.884;2024-01-06T04:08:41;20.17;;;10.70;;
16878;SDS011;8556;52.218;9.884;2024-01-06T04:11:08;21.37;;;10.47;;
16878;SDS011;8556;52.218;9.884;2024-01-06T04:13:35;21.80;;;11.60;;
16878;SDS011;8556;52.218;9.884;2024-01-06T04:16:01;22.70;;;11.50;;
16878;SDS011;8556;52.218;9.884;2024-01-06T04:18:29;21.30;;;10.97;;
16878;SDS011;8556;52.218;9.884;2024-01-06T04:20:55;20.20;;;11.23;;
16878;SDS011;8556;52.218;9.884;2024-01-06T04:23:23;20.67;;;11.20;;
16878;SDS011;8556;52.218;9.884;2024-01-06T04:25:51;23.53;;;12.87;;
16878;SDS011;8556;52.218;9.884;2024-01-06T04:28:18;22.97;;;12.27;;
16878;SDS011;8556;52.218;9.884;2024-01-06T04:30:45;24.87;;;12.70;;
16878;SDS011;8556;52.218;9.884;2024-01-06T04:33:11;25.17;;;12.63;;
16878;SDS011;8556;52.218;9.884;2024-01-06T04:35:38;21.87;;;12.47;;
16878;SDS011;8556;52.218;9.884;2024-01-06T04:38:05;25.13;;;12.37;;
16878;SDS011;8556;52.218;9.884;2024-01-06T04:40:33;22.43;;;11.67;;
16878;SDS011;8556;52.218;9.884;2024-01-06T04:43:00;23.27;;;11.80;;
16878;SDS011;8556;52.218;9.884;2024-01-06T04:45:28;24.37;;;11.73;;
16878;SDS011;8556;52.218;9.884;2024-01-06T04:47:55;23.37;;;12.13;;
16878;SDS011;8556;52.218;9.884;2024-01-06T04:50:21;21.50;;;11.37;;
16878;SDS011;8556;52.218;9.884;2024-01-06T04:52:48;24.03;;;12.73;;
16878;SDS011;8556;52.218;9.884;2024-01-06T04:55:15;26.30;;;13.03;;
16878;SDS011;8556;52.218;9.884;2024-01-06T04:57:43;23.53;;;12.23;;
16878;SDS011;8556;52.218;9.884;2024-01-06T05:00:10;22.50;;;11.93;;
16878;SDS011;8556;52.218;9.884;2024-01-06T05:02:38;24.53;;;12.50;;
16878;SDS011;8556;52.218;9.884;2024-01-06T05:05:05;26.57;;;13.57;;
16878;SDS011;8556;52.218;9.884;2024-01-06T05:07:32;27.37;;;14.50;;
16878;SDS011;8556;52.218;9.884;2024-01-06T05:09:59;26.70;;;12.87;;
16878;SDS011;8556;52.218;9.884;2024-01-06T05:12:25;24.53;;;12.43;;
16878;SDS011;8556;52.218;9.884;2024-01-06T05:14:53;24.97;;;12.07;;
16878;SDS011;8556;52.218;9.884;2024-01-06T05:17:20;24.37;;;12.20;;
16878;SDS011;8556;52.218;9.884;2024-01-06T05:19:47;24.77;;;11.63;;
16878;SDS011;8556;52.218;9.884;2024-01-06T05:22:14;21.93;;;11.40;;
16878;SDS011;8556;52.218;9.884;2024-01-06T05:24:40;20.67;;;11.40;;
16878;SDS011;8556;52.218;9.884;2024-01-06T05:27:07;20.90;;;11.33;;
16878;SDS011;8556;52.218;9.884;2024-01-06T05:29:33;20.47;;;10.33;;
16878;SDS011;8556;52.218;9.884;2024-01-06T05:32:02;22.00;;;11.20;;
16878;SDS011;8556;52.218;9.884;2024-01-06T05:34:29;22.73;;;11.77;;
16878;SDS011;8556;52.218;9.884;2024-01-06T05:36:56;27.33;;;12.57;;
16878;SDS011;8556;52.218;9.884;2024-01-06T05:39:23;24.63;;;12.43;;
16878;SDS011;8556;52.218;9.884;2024-01-06T05:41:50;24.77;;;12.97;;
16878;SDS011;8556;52.218;9.884;2024-01-06T05:44:17;23.33;;;12.27;;
16878;SDS011;8556;52.218;9.884;2024-01-06T05:46:44;23.70;;;12.50;;
16878;SDS011;8556;52.218;9.884;2024-01-06T05:49:12;25.80;;;13.03;;
16878;SDS011;8556;52.218;9.884;2024-01-06T05:51:43;25.50;;;13.30;;
16878;SDS011;8556;52.218;9.884;2024-01-06T05:54:10;23.90;;;12.40;;
16878;SDS011;8556;52.218;9.884;2024-01-06T05:56:37;23.23;;;12.50;;
16878;SDS011;8556;52.218;9.884;2024-01-06T05:59:04;24.50;;;12.50;;
16878;SDS011;8556;52.218;9.884;2024-01-06T06:01:31;25.27;;;13.30;;
16878;SDS011;8556;52.218;9.884;2024-01-06T06:03:57;23.60;;;12.33;;
16878;SDS011;8556;52.218;9.884;2024-01-06T06:06:25;26.87;;;12.43;;
16878;SDS011;8556;52.218;9.884;2024-01-06T06:08:52;26.10;;;13.30;;
16878;SDS011;8556;52.218;9.884;2024-01-06T06:11:19;25.77;;;13.17;;
16878;SDS011;8556;52.218;9.884;2024-01-06T06:13:46;23.33;;;11.70;;
16878;SDS011;8556;52.218;9.884;2024-01-06T06:16:13;25.17;;;13.33;;
16878;SDS011;8556;52.218;9.884;2024-01-06T06:18:39;25.63;;;12.97;;
16878;SDS011;8556;52.218;9.884;2024-01-06T06:21:07;25.67;;;13.37;;
16878;SDS011;8556;52.218;9.884;2024-01-06T06:23:35;24.37;;;12.10;;
16878;SDS011;8556;52.218;9.884;2024-01-06T06:26:04;25.03;;;13.07;;
16878;SDS011;8556;52.218;9.884;2024-01-06T06:28:31;24.00;;;11.97;;
16878;SDS011;8556;52.218;9.884;2024-01-06T06:30:58;23.97;;;12.13;;
16878;SDS011;8556;52.218;9.884;2024-01-06T06:33:25;24.63;;;12.57;;
16878;SDS011;8556;52.218;9.884;2024-01-06T06:35:52;25.40;;;11.67;;
16878;SDS011;8556;52.218;9.884;2024-01-06T06:38:19;27.00;;;12.43;;
16878;SDS011;8556;52.218;9.884;2024-01-06T06:40:47;24.63;;;12.57;;
16878;SDS011;8556;52.218;9.884;2024-01-06T06:43:14;25.50;;;12.87;;
16878;SDS011;8556;52.218;9.884;2024-01-06T06:45:41;24.77;;;12.23;;
16878;SDS011;8556;52.218;9.884;2024-01-06T06:48:08;25.53;;;12.47;;
16878;SDS011;8556;52.218;9.884;2024-01-06T06:50:34;25.10;;;11.73;;
16878;SDS011;8556;52.218;9.884;2024-01-06T06:53:01;25.77;;;12.10;;
16878;SDS011;8556;52.218;9.884;2024-01-06T06:55:28;23.70;;;12.47;;
16878;SDS011;8556;52.218;9.884;2024-01-06T06:57:56;25.57;;;12.40;;
16878;SDS011;8556;52.218;9.884;2024-01-06T07:00:23;27.23;;;12.70;;
16878;SDS011;8556;52.218;9.884;2024-01-06T07:02:50;26.63;;;12.60;;
16878;SDS011;8556;52.218;9.884;2024-01-06T07:05:17;27.77;;;13.77;;
16878;SDS011;8556;52.218;9.884;2024-01-06T07:07:44;26.37;;;12.80;;
16878;SDS011;8556;52.218;9.884;2024-01-06T07:10:11;24.00;;;12.80;;
16878;SDS011;8556;52.218;9.884;2024-01-06T07:12:39;26.17;;;12.70;;
16878;SDS011;8556;52.218;9.884;2024-01-06T07:15:07;27.10;;;13.23;;
16878;SDS011;8556;52.218;9.884;2024-01-06T07:17:35;26.87;;;13.53;;
16878;SDS011;8556;52.218;9.884;2024-01-06T07:20:03;27.03;;;12.70;;
16878;SDS011;8556;52.218;9.884;2024-01-06T07:22:32;28.07;;;13.87;;
16878;SDS011;8556;52.218;9.884;2024-01-06T07:24:59;28.90;;;13.57;;
16878;SDS011;8556;52.218;9.884;2024-01-06T07:27:26;27.70;;;13.90;;
16878;SDS011;8556;52.218;9.884;2024-01-06T07:29:53;29.60;;;13.07;;
16878;SDS011;8556;52.218;9.884;2024-01-06T07:32:22;28.73;;;13.27;;
16878;SDS011;8556;52.218;9.884;2024-01-06T07:34:49;31.10;;;13.97;;
16878;SDS011;8556;52.218;9.884;2024-01-06T07:37:16;31.37;;;17.20;;
16878;SDS011;8556;52.218;9.884;2024-01-06T07:39:43;31.23;;;16.23;;
16878;SDS011;8556;52.218;9.884;2024-01-06T07:42:10;31.20;;;14.80;;
16878;SDS011;8556;52.218;9.884;2024-01-06T07:44:37;29.73;;;14.27;;
16878;SDS011;8556;52.218;9.884;2024-01-06T07:47:03;30.60;;;16.67;;
16878;SDS011;8556;52.218;9.884;2024-01-06T07:49:32;32.40;;;15.20;;
16878;SDS011;8556;52.218;9.884;2024-01-06T07:51:59;30.17;;;13.80;;
16878;SDS011;8556;52.218;9.884;2024-01-06T07:54:26;30.20;;;14.63;;
16878;SDS011;8556;52.218;9.884;2024-01-06T07:56:53;29.37;;;14.27;;
16878;SDS011;8556;52.218;9.884;2024-01-06T07:59:20;30.87;;;14.73;;
16878;SDS011;8556;52.218;9.884;2024-01-06T08:01:47;29.17;;;14.13;;
16878;SDS011;8556;52.218;9.884;2024-01-06T08:04:14;29.47;;;14.60;;
16878;SDS011;8556;52.218;9.884;2024-01-06T08:06:42;29.63;;;13.40;;
16878;SDS011;8556;52.218;9.884;2024-01-06T08:09:09;29.20;;;13.37;;
16878;SDS011;8556;52.218;9.884;2024-01-06T08:11:36;29.10;;;14.50;;
16878;SDS011;8556;52.218;9.884;2024-01-06T08:14:02;28.23;;;13.43;;
16878;SDS011;8556;52.218;9.884;2024-01-06T08:16:29;32.63;;;14.23;;
16878;SDS011;8556;52.218;9.884;2024-01-06T08:18:57;29.93;;;12.97;;
16878;SDS011;8556;52.218;9.884;2024-01-06T08:21:25;32.37;;;14.53;;
16878;SDS011;8556;52.218;9.884;2024-01-06T08:23:53;31.13;;;14.17;;
16878;SDS011;8556;52.218;9.884;2024-01-06T08:26:20;36.03;;;13.97;;
16878;SDS011;8556;52.218;9.884;2024-01-06T08:28:47;34.63;;;13.83;;
16878;SDS011;8556;52.218;9.884;2024-01-06T08:31:14;32.90;;;14.30;;
16878;SDS011;8556;52.218;9.884;2024-01-06T08:33:41;28.07;;;13.23;;
16878;SDS011;8556;52.218;9.884;2024-01-06T08:36:08;29.27;;;13.47;;
16878;SDS011;8556;52.218;9.884;2024-01-06T08:38:34;30.77;;;16.43;;
16878;SDS011;8556;52.218;9.884;2024-01-06T08:41:03;30.57;;;16.20;;
16878;SDS011;8556;52.218;9.884;2024-01-06T08:43:30;31.03;;;14.53;;
16878;SDS011;8556;52.218;9.884;2024-01-06T08:45:57;33.53;;;16.83;;
16878;SDS011;8556;52.218;9.884;2024-01-06T08:48:24;30.30;;;13.57;;
16878;SDS011;8556;52.218;9.884;2024-01-06T08:50:51;32.67;;;14.70;;
16878;SDS011;8556;52.218;9.884;2024-01-06T08:53:18;32.63;;;13.77;;
16878;SDS011;8556;52.218;9.884;2024-01-06T08:55:44;33.13;;;14.83;;
16878;SDS011;8556;52.218;9.884;2024-01-06T08:58:13;31.93;;;16.10;;
16878;SDS011;8556;52.218;9.884;2024-01-06T09:00:40;30.20;;;12.10;;
16878;SDS011;8556;52.218;9.884;2024-01-06T09:03:06;35.43;;;14.63;;
16878;SDS011;8556;52.218;9.884;2024-01-06T09:05:34;31.60;;;15.70;;
16878;SDS011;8556;52.218;9.884;2024-01-06T09:08:01;32.00;;;14.30;;
16878;SDS011;8556;52.218;9.884;2024-01-06T09:10:28;33.83;;;14.87;;
16878;SDS011;8556;52.218;9.884;2024-01-06T09:12:55;35.60;;;14.97;;
16878;SDS011;8556;52.218;9.884;2024-01-06T09:15:23;32.13;;;14.20;;
16878;SDS011;8556;52.218;9.884;2024-01-06T09:17:50;30.97;;;14.80;;
16878;SDS011;8556;52.218;9.884;2024-01-06T09:20:18;33.23;;;14.73;;
16878;SDS011;8556;52.218;9.884;2024-01-06T09:22:48;32.33;;;14.17;;
16878;SDS011;8556;52.218;9.884;2024-01-06T09:25:14;25.70;;;11.60;;
16878;SDS011;8556;52.218;9.884;2024-01-06T09:27:41;31.57;;;16.57;;
16878;SDS011;8556;52.218;9.884;2024-01-06T09:30:08;25.83;;;11.20;;
16878;SDS011;8556;52.218;9.884;2024-01-06T09:32:37;30.73;;;14.13;;
16878;SDS011;8556;52.218;9.884;2024-01-06T09:35:04;30.50;;;13.63;;
16878;SDS011;8556;52.218;9.884;2024-01-06T09:37:31;34.53;;;16.63;;
16878;SDS011;8556;52.218;9.884;2024-01-06T09:39:58;36.00;;;15.70;;
16878;SDS011;8556;52.218;9.884;2024-01-06T09:42:25;36.17;;;19.60;;
16878;SDS011;8556;52.218;9.884;2024-01-06T09:44:52;35.33;;;14.80;;
16878;SDS011;8556;52.218;9.884;2024-01-06T09:47:19;40.90;;;18.53;;
16878;SDS011;8556;52.218;9.884;2024-01-06T09:49:50;40.27;;;16.97;;
16878;SDS011;8556;52.218;9.884;2024-01-06T09:52:21;37.97;;;15.77;;
16878;SDS011;8556;52.218;9.884;2024-01-06T09:54:51;36.60;;;16.00;;
16878;SDS011;8556;52.218;9.884;2024-01-06T09:57:18;36.33;;;15.57;;
16878;SDS011;8556;52.218;9.884;2024-01-06T09:59:46;35.50;;;14.87;;
16878;SDS011;8556;52.218;9.884;2024-01-06T10:02:14;40.50;;;15.90;;
16878;SDS011;8556;52.218;9.884;2024-01-06T10:04:42;40.23;;;16.67;;
16878;SDS011;8556;52.218;9.884;2024-01-06T10:07:11;41.97;;;16.73;;
16878;SDS011;8556;52.218;9.884;2024-01-06T10:09:38;39.13;;;16.30;;
16878;SDS011;8556;52.218;9.884;2024-01-06T10:12:07;31.37;;;13.97;;
16878;SDS011;8556;52.218;9.884;2024-01-06T10:14:34;40.97;;;17.77;;
16878;SDS011;8556;52.218;9.884;2024-01-06T10:17:01;39.17;;;16.37;;
16878;SDS011;8556;52.218;9.884;2024-01-06T10:19:31;35.53;;;15.97;;
16878;SDS011;8556;52.218;9.884;2024-01-06T10:21:58;38.13;;;17.07;;
16878;SDS011;8556;52.218;9.884;2024-01-06T10:24:28;38.17;;;15.93;;
16878;SDS011;8556;52.218;9.884;2024-01-06T10:26:56;38.17;;;16.33;;
16878;SDS011;8556;52.218;9.884;2024-01-06T10:29:24;37.10;;;19.40;;
16878;SDS011;8556;52.218;9.884;2024-01-06T10:31:52;40.77;;;18.50;;
16878;SDS011;8556;52.218;9.884;2024-01-06T10:34:19;38.77;;;17.30;;
16878;SDS011;8556;52.218;9.884;2024-01-06T10:36:46;43.73;;;17.37;;
16878;SDS011;8556;52.218;9.884;2024-01-06T10:39:13;37.27;;;17.10;;
16878;SDS011;8556;52.218;9.884;2024-01-06T10:41:42;37.40;;;16.63;;
16878;SDS011;8556;52.218;9.884;2024-01-06T10:44:10;43.37;;;17.70;;
16878;SDS011;8556;52.218;9.884;2024-01-06T10:46:38;38.87;;;16.90;;
16878;SDS011;8556;52.218;9.884;2024-01-06T10:49:05;40.10;;;16.27;;
16878;SDS011;8556;52.218;9.884;2024-01-06T10:51:35;38.17;;;18.47;;
16878;SDS011;8556;52.218;9.884;2024-01-06T10:54:03;36.83;;;16.07;;
16878;SDS011;8556;52.218;9.884;2024-01-06T10:56:32;34.73;;;14.87;;
16878;SDS011;8556;52.218;9.884;2024-01-06T10:59:05;30.53;;;12.67;;
16878;SDS011;8556;52.218;9.884;2024-01-06T11:01:33;36.27;;;16.43;;
16878;SDS011;8556;52.218;9.884;2024-01-06T11:04:02;35.87;;;15.57;;
16878;SDS011;8556;52.218;9.884;2024-01-06T11:06:30;33.67;;;16.13;;
16878;SDS011;8556;52.218;9.884;2024-01-06T11:08:59;36.03;;;14.93;;
16878;SDS011;8556;52.218;9.884;2024-01-06T11:11:32;35.30;;;15.07;;
16878;SDS011;8556;52.218;9.884;2024-01-06T11:14:19;35.80;;;16.60;;
16878;SDS011;8556;52.218;9.884;2024-01-06T11:16:48;34.60;;;17.33;;
16878;SDS011;8556;52.218;9.884;2024-01-06T11:22:20;36.53;;;14.30;;
16878;SDS011;8556;52.218;9.884;2024-01-06T11:24:53;32.70;;;14.07;;
16878;SDS011;8556;52.218;9.884;2024-01-06T11:27:22;34.23;;;14.63;;
16878;SDS011;8556;52.218;9.884;2024-01-06T11:29:53;39.53;;;16.97;;
16878;SDS011;8556;52.218;9.884;2024-01-06T11:32:20;40.20;;;16.23;;
16878;SDS011;8556;52.218;9.884;2024-01-06T11:34:52;34.23;;;15.47;;
16878;SDS011;8556;52.218;9.884;2024-01-06T11:37:24;41.63;;;18.83;;
16878;SDS011;8556;52.218;9.884;2024-01-06T11:40:01;41.17;;;18.30;;
16878;SDS011;8556;52.218;9.884;2024-01-06T11:42:31;42.00;;;19.13;;
16878;SDS011;8556;52.218;9.884;2024-01-06T11:45:02;40.87;;;15.67;;
16878;SDS011;8556;52.218;9.884;2024-01-06T11:47:31;36.00;;;16.77;;
16878;SDS011;8556;52.218;9.884;2024-01-06T11:49:59;38.47;;;15.23;;
16878;SDS011;8556;52.218;9.884;2024-01-06T11:52:28;39.63;;;16.53;;
16878;SDS011;8556;52.218;9.884;2024-01-06T11:54:55;38.93;;;16.83;;
16878;SDS011;8556;52.218;9.884;2024-01-06T11:57:24;46.87;;;17.87;;
16878;SDS011;8556;52.218;9.884;2024-01-06T11:59:51;43.47;;;17.10;;
16878;SDS011;8556;52.218;9.884;2024-01-06T12:02:19;50.07;;;23.40;;
16878;SDS011;8556;52.218;9.884;2024-01-06T12:04:47;47.23;;;19.47;;
16878;SDS011;8556;52.218;9.884;2024-01-06T12:07:15;50.90;;;17.73;;
16878;SDS011;8556;52.218;9.884;2024-01-06T12:09:43;44.00;;;17.80;;
16878;SDS011;8556;52.218;9.884;2024-01-06T12:12:09;39.63;;;16.37;;
16878;SDS011;8556;52.218;9.884;2024-01-06T12:14:39;42.27;;;17.13;;
16878;SDS011;8556;52.218;9.884;2024-01-06T12:17:07;42.03;;;19.50;;
16878;SDS011;8556;52.218;9.884;2024-01-06T12:19:35;39.33;;;17.33;;
16878;SDS011;8556;52.218;9.884;2024-01-06T12:22:02;43.27;;;20.73;;
16878;SDS011;8556;52.218;9.884;2024-01-06T12:24:29;44.53;;;16.57;;
16878;SDS011;8556;52.218;9.884;2024-01-06T12:26:57;41.37;;;19.97;;
16878;SDS011;8556;52.218;9.884;2024-01-06T12:29:26;42.07;;;16.97;;
16878;SDS011;8556;52.218;9.884;2024-01-06T12:31:54;42.83;;;18.83;;
16878;SDS011;8556;52.218;9.884;2024-01-06T12:34:21;37.90;;;18.03;;
16878;SDS011;8556;52.218;9.884;2024-01-06T12:36:50;38.77;;;17.53;;
16878;SDS011;8556;52.218;9.884;2024-01-06T12:39:19;29.53;;;12.23;;
16878;SDS011;8556;52.218;9.884;2024-01-06T12:41:48;24.67;;;10.93;;
16878;SDS011;8556;52.218;9.884;2024-01-06T12:44:16;29.37;;;11.00;;
16878;SDS011;8556;52.218;9.884;2024-01-06T12:46:43;34.30;;;16.30;;
16878;SDS011;8556;52.218;9.884;2024-01-06T12:49:09;31.10;;;15.23;;
16878;SDS011;8556;52.218;9.884;2024-01-06T12:51:36;33.73;;;15.13;;
16878;SDS011;8556;52.218;9.884;2024-01-06T12:54:05;29.97;;;14.53;;
16878;SDS011;8556;52.218;9.884;2024-01-06T12:56:31;31.17;;;12.43;;
16878;SDS011;8556;52.218;9.884;2024-01-06T12:58:58;32.97;;;14.00;;
16878;SDS011;8556;52.218;9.884;2024-01-06T13:01:25;27.83;;;13.37;;
16878;SDS011;8556;52.218;9.884;2024-01-06T13:03:52;27.83;;;10.87;;
16878;SDS011;8556;52.218;9.884;2024-01-06T13:06:19;29.83;;;10.87;;
16878;SDS011;8556;52.218;9.884;2024-01-06T13:08:46;33.23;;;14.37;;
16878;SDS011;8556;52.218;9.884;2024-01-06T13:11:15;27.77;;;9.67;;
16878;SDS011;8556;52.218;9.884;2024-01-06T13:13:43;29.30;;;13.90;;
16878;SDS011;8556;52.218;9.884;2024-01-06T13:16:09;31.27;;;12.73;;
16878;SDS011;8556;52.218;9.884;2024-01-06T13:18:36;34.77;;;15.87;;
16878;SDS011;8556;52.218;9.884;2024-01-06T13:21:03;31.93;;;15.07;;
16878;SDS011;8556;52.218;9.884;2024-01-06T13:23:31;34.73;;;15.27;;
16878;SDS011;8556;52.218;9.884;2024-01-06T13:25:58;34.27;;;15.27;;
16878;SDS011;8556;52.218;9.884;2024-01-06T13:28:26;35.93;;;16.47;;
16878;SDS011;8556;52.218;9.884;2024-01-06T13:30:53;30.00;;;12.73;;
16878;SDS011;8556;52.218;9.884;2024-01-06T13:33:19;35.73;;;16.17;;
16878;SDS011;8556;52.218;9.884;2024-01-06T13:35:47;34.83;;;15.83;;
16878;SDS011;8556;52.218;9.884;2024-01-06T13:38:15;24.43;;;10.73;;
16878;SDS011;8556;52.218;9.884;2024-01-06T13:40:42;32.37;;;14.20;;
16878;SDS011;8556;52.218;9.884;2024-01-06T13:43:09;33.13;;;14.43;;
16878;SDS011;8556;52.218;9.884;2024-01-06T13:45:41;35.37;;;14.17;;
16878;SDS011;8556;52.218;9.884;2024-01-06T13:48:09;42.10;;;19.77;;
16878;SDS011;8556;52.218;9.884;2024-01-06T13:50:36;39.60;;;18.10;;
16878;SDS011;8556;52.218;9.884;2024-01-06T13:53:03;35.97;;;13.93;;
16878;SDS011;8556;52.218;9.884;2024-01-06T13:55:31;41.67;;;18.93;;
16878;SDS011;8556;52.218;9.884;2024-01-06T13:57:58;38.37;;;17.37;;
16878;SDS011;8556;52.218;9.884;2024-01-06T14:00:25;35.63;;;18.10;;
16878;SDS011;8556;52.218;9.884;2024-01-06T14:02:53;32.07;;;12.83;;
16878;SDS011;8556;52.218;9.884;2024-01-06T14:05:21;38.90;;;16.00;;
16878;SDS011;8556;52.218;9.884;2024-01-06T14:07:48;39.67;;;18.17;;
16878;SDS011;8556;52.218;9.884;2024-01-06T14:10:15;35.37;;;13.90;;
16878;SDS011;8556;52.218;9.884;2024-01-06T14:12:42;37.67;;;14.87;;
16878;SDS011;8556;52.218;9.884;2024-01-06T14:15:09;37.83;;;17.60;;
16878;SDS011;8556;52.218;9.884;2024-01-06T14:17:36;40.60;;;18.93;;
16878;SDS011;8556;52.218;9.884;2024-01-06T14:20:07;34.63;;;16.83;;
16878;SDS011;8556;52.218;9.884;2024-01-06T14:22:37;40.43;;;16.67;;
16878;SDS011;8556;52.218;9.884;2024-01-06T14:25:04;35.60;;;16.93;;
16878;SDS011;8556;52.218;9.884;2024-01-06T14:27:32;39.37;;;16.53;;
16878;SDS011;8556;52.218;9.884;2024-01-06T14:29:59;35.60;;;15.30;;
16878;SDS011;8556;52.218;9.884;2024-01-06T14:32:26;37.07;;;18.30;;
16878;SDS011;8556;52.218;9.884;2024-01-06T14:34:54;30.93;;;13.33;;
16878;SDS011;8556;52.218;9.884;2024-01-06T14:37:22;39.03;;;17.53;;
16878;SDS011;8556;52.218;9.884;2024-01-06T14:39:49;38.60;;;16.70;;
16878;SDS011;8556;52.218;9.884;2024-01-06T14:42:15;37.07;;;17.70;;
16878;SDS011;8556;52.218;9.884;2024-01-06T14:44:44;36.87;;;18.27;;